sensor_id;sensor_type;location;lat;lon;timestamp;temperature;humidity
7512;DHT22;9999;48.780;9.146;2022-08-14T00:01:44;20.50;67.80
7512;DHT22;9999;48.780;9.146;2022-08-14T00:04:11;20.50;66.90
7512;DHT22;9999;48.780;9.146;2022-08-14T00:06:38;20.40;68.00
7512;DHT22;9999;48.780;9.146;2022-08-14T00:09:04;20.50;68.50
7512;DHT22;9999;48.780;9.146;2022-08-14T00:11:33;20.50;69.90
7512;DHT22;9999;48.780;9.146;2022-08-14T00:14:00;20.40;68.90
7512;DHT22;9999;48.780;9.146;2022-08-14T00:16:27;20.30;68.80
7512;DHT22;9999;48.780;9.146;2022-08-14T00:18:54;20.20;69.60
7512;DHT22;9999;48.780;9.146;2022-08-14T00:21:21;20.20;71.00
7512;DHT22;9999;48.780;9.146;2022-08-14T00:23:48;20.20;71.20
7512;DHT22;9999;48.780;9.146;2022-08-14T00:26:16;20.20;71.30
7512;DHT22;9999;48.780;9.146;2022-08-14T00:28:44;20.20;71.30
7512;DHT22;9999;48.780;9.146;2022-08-14T00:31:11;20.10;70.70
7512;DHT22;9999;48.780;9.146;2022-08-14T00:33:39;20.00;71.20
7512;DHT22;9999;48.780;9.146;2022-08-14T00:36:06;20.00;72.30
7512;DHT22;9999;48.780;9.146;2022-08-14T00:38:34;20.00;72.30
7512;DHT22;9999;48.780;9.146;2022-08-14T00:41:02;20.10;73.80
7512;DHT22;9999;48.780;9.146;2022-08-14T00:43:29;20.00;73.80
7512;DHT22;9999;48.780;9.146;2022-08-14T00:46:01;20.00;74.00
7512;DHT22;9999;48.780;9.146;2022-08-14T00:48:28;19.90;73.50
7512;DHT22;9999;48.780;9.146;2022-08-14T00:50:55;19.80;74.40
7512;DHT22;9999;48.780;9.146;2022-08-14T00:53:22;19.80;74.60
7512;DHT22;9999;48.780;9.146;2022-08-14T00:55:50;19.80;75.60
7512;DHT22;9999;48.780;9.146;2022-08-14T00:58:20;19.80;77.50
7512;DHT22;9999;48.780;9.146;2022-08-14T01:00:57;19.80;77.80
7512;DHT22;9999;48.780;9.146;2022-08-14T01:03:26;19.80;78.20
7512;DHT22;9999;48.780;9.146;2022-08-14T01:05:54;19.70;78.70
7512;DHT22;9999;48.780;9.146;2022-08-14T01:08:24;19.70;79.80
7512;DHT22;9999;48.780;9.146;2022-08-14T01:10:53;19.70;81.00
7512;DHT22;9999;48.780;9.146;2022-08-14T01:13:21;19.70;82.20
7512;DHT22;9999;48.780;9.146;2022-08-14T01:15:52;19.70;81.70
7512;DHT22;9999;48.780;9.146;2022-08-14T01:18:22;19.60;80.70
7512;DHT22;9999;48.780;9.146;2022-08-14T01:21:08;19.60;80.50
7512;DHT22;9999;48.780;9.146;2022-08-14T01:23:39;19.60;82.10
7512;DHT22;9999;48.780;9.146;2022-08-14T01:26:07;19.50;83.40
7512;DHT22;9999;48.780;9.146;2022-08-14T01:28:34;19.50;84.00
7512;DHT22;9999;48.780;9.146;2022-08-14T01:31:03;19.40;83.60
7512;DHT22;9999;48.780;9.146;2022-08-14T01:33:31;19.30;85.60
7512;DHT22;9999;48.780;9.146;2022-08-14T01:35:58;19.30;86.90
7512;DHT22;9999;48.780;9.146;2022-08-14T01:38:26;19.20;86.50
7512;DHT22;9999;48.780;9.146;2022-08-14T01:40:57;19.20;84.40
7512;DHT22;9999;48.780;9.146;2022-08-14T01:43:24;19.20;84.80
7512;DHT22;9999;48.780;9.146;2022-08-14T01:45:56;19.20;86.40
7512;DHT22;9999;48.780;9.146;2022-08-14T01:48:25;19.30;87.10
7512;DHT22;9999;48.780;9.146;2022-08-14T01:50:57;19.30;87.30
7512;DHT22;9999;48.780;9.146;2022-08-14T01:53:25;19.30;86.30
7512;DHT22;9999;48.780;9.146;2022-08-14T01:55:54;19.30;86.90
7512;DHT22;9999;48.780;9.146;2022-08-14T01:58:24;19.30;86.10
7512;DHT22;9999;48.780;9.146;2022-08-14T02:00:56;19.20;85.70
7512;DHT22;9999;48.780;9.146;2022-08-14T02:03:24;19.20;86.00
7512;DHT22;9999;48.780;9.146;2022-08-14T02:05:53;19.20;86.60
7512;DHT22;9999;48.780;9.146;2022-08-14T02:08:24;19.10;88.00
7512;DHT22;9999;48.780;9.146;2022-08-14T02:10:55;19.10;90.00
7512;DHT22;9999;48.780;9.146;2022-08-14T02:13:39;19.10;89.50
7512;DHT22;9999;48.780;9.146;2022-08-14T02:16:09;19.10;90.20
7512;DHT22;9999;48.780;9.146;2022-08-14T02:18:36;19.10;90.00
7512;DHT22;9999;48.780;9.146;2022-08-14T02:21:03;19.00;89.20
7512;DHT22;9999;48.780;9.146;2022-08-14T02:23:31;19.00;90.40
7512;DHT22;9999;48.780;9.146;2022-08-14T02:25:58;19.00;91.00
7512;DHT22;9999;48.780;9.146;2022-08-14T02:28:26;18.90;91.60
7512;DHT22;9999;48.780;9.146;2022-08-14T02:30:58;18.90;91.30
7512;DHT22;9999;48.780;9.146;2022-08-14T02:33:25;18.80;90.90
7512;DHT22;9999;48.780;9.146;2022-08-14T02:35:53;18.80;90.80
7512;DHT22;9999;48.780;9.146;2022-08-14T02:38:20;18.80;91.90
7512;DHT22;9999;48.780;9.146;2022-08-14T02:40:47;18.80;93.30
7512;DHT22;9999;48.780;9.146;2022-08-14T02:43:14;18.80;93.20
7512;DHT22;9999;48.780;9.146;2022-08-14T02:45:42;18.80;92.60
7512;DHT22;9999;48.780;9.146;2022-08-14T02:48:13;18.70;92.60
7512;DHT22;9999;48.780;9.146;2022-08-14T02:50:40;18.80;93.30
7512;DHT22;9999;48.780;9.146;2022-08-14T02:53:08;18.70;92.30
7512;DHT22;9999;48.780;9.146;2022-08-14T02:55:36;18.70;93.90
7512;DHT22;9999;48.780;9.146;2022-08-14T02:58:04;18.60;93.40
7512;DHT22;9999;48.780;9.146;2022-08-14T03:00:32;18.60;93.00
7512;DHT22;9999;48.780;9.146;2022-08-14T03:02:59;18.50;93.20
7512;DHT22;9999;48.780;9.146;2022-08-14T03:05:30;18.50;93.60
7512;DHT22;9999;48.780;9.146;2022-08-14T03:08:04;18.40;94.30
7512;DHT22;9999;48.780;9.146;2022-08-14T03:10:31;18.40;94.40
7512;DHT22;9999;48.780;9.146;2022-08-14T03:12:59;18.40;94.80
7512;DHT22;9999;48.780;9.146;2022-08-14T03:15:28;18.40;95.60
7512;DHT22;9999;48.780;9.146;2022-08-14T03:17:56;18.30;96.80
7512;DHT22;9999;48.780;9.146;2022-08-14T03:20:23;18.20;96.30
7512;DHT22;9999;48.780;9.146;2022-08-14T03:22:51;18.20;97.40
7512;DHT22;9999;48.780;9.146;2022-08-14T03:25:18;18.20;97.40
7512;DHT22;9999;48.780;9.146;2022-08-14T03:27:46;18.30;97.10
7512;DHT22;9999;48.780;9.146;2022-08-14T03:30:13;18.30;96.90
7512;DHT22;9999;48.780;9.146;2022-08-14T03:32:39;18.30;96.60
7512;DHT22;9999;48.780;9.146;2022-08-14T03:35:08;18.20;97.20
7512;DHT22;9999;48.780;9.146;2022-08-14T03:37:36;18.20;99.10
7512;DHT22;9999;48.780;9.146;2022-08-14T03:40:06;18.20;98.50
7512;DHT22;9999;48.780;9.146;2022-08-14T03:42:33;18.30;99.70
7512;DHT22;9999;48.780;9.146;2022-08-14T03:45:01;18.20;99.50
7512;DHT22;9999;48.780;9.146;2022-08-14T03:47:28;18.20;99.90
7512;DHT22;9999;48.780;9.146;2022-08-14T03:49:55;18.20;99.90
7512;DHT22;9999;48.780;9.146;2022-08-14T03:52:22;18.20;99.90
7512;DHT22;9999;48.780;9.146;2022-08-14T03:54:50;18.10;99.90
7512;DHT22;9999;48.780;9.146;2022-08-14T03:57:18;18.00;99.90
7512;DHT22;9999;48.780;9.146;2022-08-14T03:59:45;18.10;99.90
7512;DHT22;9999;48.780;9.146;2022-08-14T04:02:12;18.00;99.90
7512;DHT22;9999;48.780;9.146;2022-08-14T04:04:39;18.00;99.90
7512;DHT22;9999;48.780;9.146;2022-08-14T04:07:09;18.00;99.90
7512;DHT22;9999;48.780;9.146;2022-08-14T04:09:35;18.00;99.90
7512;DHT22;9999;48.780;9.146;2022-08-14T04:12:03;18.00;99.90
7512;DHT22;9999;48.780;9.146;2022-08-14T04:14:31;18.00;99.90
7512;DHT22;9999;48.780;9.146;2022-08-14T04:16:58;17.90;99.90
7512;DHT22;9999;48.780;9.146;2022-08-14T04:19:25;17.90;99.90
7512;DHT22;9999;48.780;9.146;2022-08-14T04:21:52;17.80;99.90
7512;DHT22;9999;48.780;9.146;2022-08-14T04:24:19;17.80;99.90
7512;DHT22;9999;48.780;9.146;2022-08-14T04:26:46;17.90;99.90
7512;DHT22;9999;48.780;9.146;2022-08-14T04:29:13;17.90;99.90
7512;DHT22;9999;48.780;9.146;2022-08-14T04:31:41;17.80;99.90
7512;DHT22;9999;48.780;9.146;2022-08-14T04:34:08;17.80;99.90
7512;DHT22;9999;48.780;9.146;2022-08-14T04:36:35;17.80;99.90
7512;DHT22;9999;48.780;9.146;2022-08-14T04:39:22;17.70;99.90
7512;DHT22;9999;48.780;9.146;2022-08-14T04:42:06;17.70;99.90
7512;DHT22;9999;48.780;9.146;2022-08-14T04:44:51;17.70;99.90
7512;DHT22;9999;48.780;9.146;2022-08-14T04:47:19;17.70;99.90
7512;DHT22;9999;48.780;9.146;2022-08-14T04:50:04;17.70;99.90
7512;DHT22;9999;48.780;9.146;2022-08-14T04:52:31;17.70;99.90
7512;DHT22;9999;48.780;9.146;2022-08-14T04:54:58;17.70;99.90
7512;DHT22;9999;48.780;9.146;2022-08-14T04:57:25;17.70;99.90
7512;DHT22;9999;48.780;9.146;2022-08-14T04:59:52;17.70;99.90
7512;DHT22;9999;48.780;9.146;2022-08-14T05:02:20;17.70;99.90
7512;DHT22;9999;48.780;9.146;2022-08-14T05:04:49;17.70;99.90
7512;DHT22;9999;48.780;9.146;2022-08-14T05:07:16;17.70;99.90
7512;DHT22;9999;48.780;9.146;2022-08-14T05:09:42;17.70;99.90
7512;DHT22;9999;48.780;9.146;2022-08-14T05:12:10;17.80;99.90
7512;DHT22;9999;48.780;9.146;2022-08-14T05:14:37;17.80;99.90
7512;DHT22;9999;48.780;9.146;2022-08-14T05:17:04;17.80;99.90
7512;DHT22;9999;48.780;9.146;2022-08-14T05:19:32;17.80;99.90
7512;DHT22;9999;48.780;9.146;2022-08-14T05:21:59;17.80;99.90
7512;DHT22;9999;48.780;9.146;2022-08-14T05:24:27;17.90;99.90
7512;DHT22;9999;48.780;9.146;2022-08-14T05:26:54;17.80;99.90
7512;DHT22;9999;48.780;9.146;2022-08-14T05:29:21;17.90;99.90
7512;DHT22;9999;48.780;9.146;2022-08-14T05:31:48;17.90;99.90
7512;DHT22;9999;48.780;9.146;2022-08-14T05:34:15;18.00;99.90
7512;DHT22;9999;48.780;9.146;2022-08-14T05:36:43;18.00;99.90
7512;DHT22;9999;48.780;9.146;2022-08-14T05:39:10;18.00;99.90
7512;DHT22;9999;48.780;9.146;2022-08-14T05:41:37;18.10;99.90
7512;DHT22;9999;48.780;9.146;2022-08-14T05:44:04;18.10;99.90
7512;DHT22;9999;48.780;9.146;2022-08-14T05:46:31;18.20;99.90
7512;DHT22;9999;48.780;9.146;2022-08-14T05:48:58;18.20;99.90
7512;DHT22;9999;48.780;9.146;2022-08-14T05:51:26;18.20;99.90
7512;DHT22;9999;48.780;9.146;2022-08-14T05:53:55;18.20;99.90
7512;DHT22;9999;48.780;9.146;2022-08-14T05:56:23;18.20;99.90
7512;DHT22;9999;48.780;9.146;2022-08-14T05:58:50;18.20;99.90
7512;DHT22;9999;48.780;9.146;2022-08-14T06:01:17;18.30;99.90
7512;DHT22;9999;48.780;9.146;2022-08-14T06:03:44;18.30;99.90
7512;DHT22;9999;48.780;9.146;2022-08-14T06:06:10;18.30;99.90
7512;DHT22;9999;48.780;9.146;2022-08-14T06:08:37;18.40;99.90
7512;DHT22;9999;48.780;9.146;2022-08-14T06:11:07;18.40;99.90
7512;DHT22;9999;48.780;9.146;2022-08-14T06:13:35;18.50;99.90
7512;DHT22;9999;48.780;9.146;2022-08-14T06:16:03;18.50;99.90
7512;DHT22;9999;48.780;9.146;2022-08-14T06:18:30;18.60;99.90
7512;DHT22;9999;48.780;9.146;2022-08-14T06:20:57;18.80;99.90
7512;DHT22;9999;48.780;9.146;2022-08-14T06:23:24;18.80;99.90
7512;DHT22;9999;48.780;9.146;2022-08-14T06:25:51;19.00;99.90
7512;DHT22;9999;48.780;9.146;2022-08-14T06:28:21;19.10;99.90
7512;DHT22;9999;48.780;9.146;2022-08-14T06:30:48;19.30;99.90
7512;DHT22;9999;48.780;9.146;2022-08-14T06:33:17;19.50;99.90
7512;DHT22;9999;48.780;9.146;2022-08-14T06:35:46;19.70;99.90
7512;DHT22;9999;48.780;9.146;2022-08-14T06:38:14;19.90;99.90
7512;DHT22;9999;48.780;9.146;2022-08-14T06:40:42;20.20;99.90
7512;DHT22;9999;48.780;9.146;2022-08-14T06:43:10;20.40;99.90
7512;DHT22;9999;48.780;9.146;2022-08-14T06:45:40;20.60;99.90
7512;DHT22;9999;48.780;9.146;2022-08-14T06:48:12;20.80;98.50
7512;DHT22;9999;48.780;9.146;2022-08-14T06:50:41;21.10;99.90
7512;DHT22;9999;48.780;9.146;2022-08-14T06:53:07;21.30;98.20
7512;DHT22;9999;48.780;9.146;2022-08-14T06:55:34;21.50;97.90
7512;DHT22;9999;48.780;9.146;2022-08-14T06:58:01;21.90;97.90
7512;DHT22;9999;48.780;9.146;2022-08-14T07:00:28;22.20;94.20
7512;DHT22;9999;48.780;9.146;2022-08-14T07:02:57;22.50;93.60
7512;DHT22;9999;48.780;9.146;2022-08-14T07:05:41;22.70;94.80
7512;DHT22;9999;48.780;9.146;2022-08-14T07:08:16;23.00;94.50
7512;DHT22;9999;48.780;9.146;2022-08-14T07:10:43;23.30;92.70
7512;DHT22;9999;48.780;9.146;2022-08-14T07:13:11;23.50;91.80
7512;DHT22;9999;48.780;9.146;2022-08-14T07:15:39;23.80;90.00
7512;DHT22;9999;48.780;9.146;2022-08-14T07:18:09;24.20;90.80
7512;DHT22;9999;48.780;9.146;2022-08-14T07:20:37;24.40;90.10
7512;DHT22;9999;48.780;9.146;2022-08-14T07:23:05;24.70;87.70
7512;DHT22;9999;48.780;9.146;2022-08-14T07:25:34;24.70;83.80
7512;DHT22;9999;48.780;9.146;2022-08-14T07:28:08;24.80;84.20
7512;DHT22;9999;48.780;9.146;2022-08-14T07:30:35;24.70;83.30
7512;DHT22;9999;48.780;9.146;2022-08-14T07:33:02;25.10;80.80
7512;DHT22;9999;48.780;9.146;2022-08-14T07:35:31;25.50;82.60
7512;DHT22;9999;48.780;9.146;2022-08-14T07:37:58;25.80;79.50
7512;DHT22;9999;48.780;9.146;2022-08-14T07:40:25;25.80;81.50
7512;DHT22;9999;48.780;9.146;2022-08-14T07:42:52;26.00;78.40
7512;DHT22;9999;48.780;9.146;2022-08-14T07:45:20;26.10;78.70
7512;DHT22;9999;48.780;9.146;2022-08-14T07:47:47;26.30;74.00
7512;DHT22;9999;48.780;9.146;2022-08-14T07:50:15;26.60;75.90
7512;DHT22;9999;48.780;9.146;2022-08-14T07:52:44;26.90;77.50
7512;DHT22;9999;48.780;9.146;2022-08-14T07:55:13;27.10;71.70
7512;DHT22;9999;48.780;9.146;2022-08-14T07:57:41;27.20;68.00
7512;DHT22;9999;48.780;9.146;2022-08-14T08:00:10;27.00;70.80
7512;DHT22;9999;48.780;9.146;2022-08-14T08:02:40;27.00;69.10
7512;DHT22;9999;48.780;9.146;2022-08-14T08:05:08;27.30;68.10
7512;DHT22;9999;48.780;9.146;2022-08-14T08:07:36;27.10;67.80
7512;DHT22;9999;48.780;9.146;2022-08-14T08:10:07;27.30;66.40
7512;DHT22;9999;48.780;9.146;2022-08-14T08:12:48;27.50;66.20
7512;DHT22;9999;48.780;9.146;2022-08-14T08:15:18;27.50;65.90
7512;DHT22;9999;48.780;9.146;2022-08-14T08:17:45;27.70;67.10
7512;DHT22;9999;48.780;9.146;2022-08-14T08:20:15;27.90;64.10
7512;DHT22;9999;48.780;9.146;2022-08-14T08:22:42;28.20;65.00
7512;DHT22;9999;48.780;9.146;2022-08-14T08:25:10;28.40;60.10
7512;DHT22;9999;48.780;9.146;2022-08-14T08:27:37;28.10;59.50
7512;DHT22;9999;48.780;9.146;2022-08-14T08:30:05;28.00;62.60
7512;DHT22;9999;48.780;9.146;2022-08-14T08:32:38;27.80;59.70
7512;DHT22;9999;48.780;9.146;2022-08-14T08:35:09;27.70;59.80
7512;DHT22;9999;48.780;9.146;2022-08-14T08:37:36;27.60;59.00
7512;DHT22;9999;48.780;9.146;2022-08-14T08:40:03;27.70;60.80
7512;DHT22;9999;48.780;9.146;2022-08-14T08:42:32;27.70;58.90
7512;DHT22;9999;48.780;9.146;2022-08-14T08:44:59;28.00;57.80
7512;DHT22;9999;48.780;9.146;2022-08-14T08:47:37;28.00;57.00
7512;DHT22;9999;48.780;9.146;2022-08-14T08:50:15;28.00;57.70
7512;DHT22;9999;48.780;9.146;2022-08-14T08:52:46;28.10;55.60
7512;DHT22;9999;48.780;9.146;2022-08-14T08:55:14;27.70;55.70
7512;DHT22;9999;48.780;9.146;2022-08-14T08:57:43;27.60;57.20
7512;DHT22;9999;48.780;9.146;2022-08-14T09:00:15;27.70;54.70
7512;DHT22;9999;48.780;9.146;2022-08-14T09:02:51;27.90;54.60
7512;DHT22;9999;48.780;9.146;2022-08-14T09:05:18;28.40;56.40
7512;DHT22;9999;48.780;9.146;2022-08-14T09:07:45;28.50;55.80
7512;DHT22;9999;48.780;9.146;2022-08-14T09:10:12;28.40;53.40
7512;DHT22;9999;48.780;9.146;2022-08-14T09:12:39;28.50;53.20
7512;DHT22;9999;48.780;9.146;2022-08-14T09:15:09;28.60;54.30
7512;DHT22;9999;48.780;9.146;2022-08-14T09:17:36;28.70;52.40
7512;DHT22;9999;48.780;9.146;2022-08-14T09:20:03;28.70;52.70
7512;DHT22;9999;48.780;9.146;2022-08-14T09:22:31;29.00;52.60
7512;DHT22;9999;48.780;9.146;2022-08-14T09:24:58;29.10;53.40
7512;DHT22;9999;48.780;9.146;2022-08-14T09:27:25;29.00;52.90
7512;DHT22;9999;48.780;9.146;2022-08-14T09:29:52;29.00;54.80
7512;DHT22;9999;48.780;9.146;2022-08-14T09:32:27;29.20;54.30
7512;DHT22;9999;48.780;9.146;2022-08-14T09:35:02;29.00;52.00
7512;DHT22;9999;48.780;9.146;2022-08-14T09:37:44;29.00;52.40
7512;DHT22;9999;48.780;9.146;2022-08-14T09:40:21;28.80;53.40
7512;DHT22;9999;48.780;9.146;2022-08-14T09:42:59;29.00;54.00
7512;DHT22;9999;48.780;9.146;2022-08-14T09:45:34;29.10;53.50
7512;DHT22;9999;48.780;9.146;2022-08-14T09:48:13;29.10;52.90
7512;DHT22;9999;48.780;9.146;2022-08-14T09:50:44;29.10;53.10
7512;DHT22;9999;48.780;9.146;2022-08-14T09:53:15;29.50;54.30
7512;DHT22;9999;48.780;9.146;2022-08-14T09:55:42;29.90;54.50
7512;DHT22;9999;48.780;9.146;2022-08-14T09:58:17;30.10;52.20
7512;DHT22;9999;48.780;9.146;2022-08-14T10:00:47;30.00;52.30
7512;DHT22;9999;48.780;9.146;2022-08-14T10:03:26;29.90;52.30
7512;DHT22;9999;48.780;9.146;2022-08-14T10:06:04;30.00;50.80
7512;DHT22;9999;48.780;9.146;2022-08-14T10:08:40;30.10;50.70
7512;DHT22;9999;48.780;9.146;2022-08-14T10:11:13;29.90;50.40
7512;DHT22;9999;48.780;9.146;2022-08-14T10:13:42;30.00;51.00
7512;DHT22;9999;48.780;9.146;2022-08-14T10:16:09;30.20;50.00
7512;DHT22;9999;48.780;9.146;2022-08-14T10:18:38;30.50;49.70
7512;DHT22;9999;48.780;9.146;2022-08-14T10:21:07;30.50;49.70
7512;DHT22;9999;48.780;9.146;2022-08-14T10:23:40;30.50;49.00
7512;DHT22;9999;48.780;9.146;2022-08-14T10:26:08;30.30;48.70
7512;DHT22;9999;48.780;9.146;2022-08-14T10:28:40;30.30;49.70
7512;DHT22;9999;48.780;9.146;2022-08-14T10:31:22;30.60;50.20
7512;DHT22;9999;48.780;9.146;2022-08-14T10:34:02;30.60;50.50
7512;DHT22;9999;48.780;9.146;2022-08-14T10:36:32;30.70;49.50
7512;DHT22;9999;48.780;9.146;2022-08-14T10:39:02;30.90;48.20
7512;DHT22;9999;48.780;9.146;2022-08-14T10:41:38;30.90;47.80
7512;DHT22;9999;48.780;9.146;2022-08-14T10:44:07;31.10;48.60
7512;DHT22;9999;48.780;9.146;2022-08-14T10:46:40;30.90;48.00
7512;DHT22;9999;48.780;9.146;2022-08-14T10:49:16;31.30;47.00
7512;DHT22;9999;48.780;9.146;2022-08-14T10:51:55;31.30;46.40
7512;DHT22;9999;48.780;9.146;2022-08-14T10:54:38;31.10;47.40
7512;DHT22;9999;48.780;9.146;2022-08-14T10:57:13;31.30;49.10
7512;DHT22;9999;48.780;9.146;2022-08-14T10:59:42;31.40;46.40
7512;DHT22;9999;48.780;9.146;2022-08-14T11:02:25;31.50;47.00
7512;DHT22;9999;48.780;9.146;2022-08-14T11:05:02;31.60;47.10
7512;DHT22;9999;48.780;9.146;2022-08-14T11:07:30;31.70;45.80
7512;DHT22;9999;48.780;9.146;2022-08-14T11:09:59;31.80;46.40
7512;DHT22;9999;48.780;9.146;2022-08-14T11:12:39;32.00;46.20
7512;DHT22;9999;48.780;9.146;2022-08-14T11:15:07;31.80;46.70
7512;DHT22;9999;48.780;9.146;2022-08-14T11:17:34;31.70;46.20
7512;DHT22;9999;48.780;9.146;2022-08-14T11:20:05;31.80;45.50
7512;DHT22;9999;48.780;9.146;2022-08-14T11:22:32;31.70;46.30
7512;DHT22;9999;48.780;9.146;2022-08-14T11:25:02;31.60;44.80
7512;DHT22;9999;48.780;9.146;2022-08-14T11:27:30;31.70;43.90
7512;DHT22;9999;48.780;9.146;2022-08-14T11:30:00;31.80;44.30
7512;DHT22;9999;48.780;9.146;2022-08-14T11:32:28;31.90;45.90
7512;DHT22;9999;48.780;9.146;2022-08-14T11:34:55;32.00;46.00
7512;DHT22;9999;48.780;9.146;2022-08-14T11:37:23;31.80;45.50
7512;DHT22;9999;48.780;9.146;2022-08-14T11:39:58;32.00;46.30
7512;DHT22;9999;48.780;9.146;2022-08-14T11:42:26;31.90;44.90
7512;DHT22;9999;48.780;9.146;2022-08-14T11:44:56;32.20;45.50
7512;DHT22;9999;48.780;9.146;2022-08-14T11:47:24;32.20;44.10
7512;DHT22;9999;48.780;9.146;2022-08-14T11:49:50;32.30;43.00
7512;DHT22;9999;48.780;9.146;2022-08-14T11:52:17;32.30;42.70
7512;DHT22;9999;48.780;9.146;2022-08-14T11:54:55;32.40;43.50
7512;DHT22;9999;48.780;9.146;2022-08-14T11:57:22;32.50;44.20
7512;DHT22;9999;48.780;9.146;2022-08-14T12:00:00;32.50;42.60
7512;DHT22;9999;48.780;9.146;2022-08-14T12:02:29;32.40;43.40
7512;DHT22;9999;48.780;9.146;2022-08-14T12:04:56;32.30;43.90
7512;DHT22;9999;48.780;9.146;2022-08-14T12:07:23;32.40;42.40
7512;DHT22;9999;48.780;9.146;2022-08-14T12:09:54;32.40;42.60
7512;DHT22;9999;48.780;9.146;2022-08-14T12:12:23;32.40;42.60
7512;DHT22;9999;48.780;9.146;2022-08-14T12:14:52;32.30;42.50
7512;DHT22;9999;48.780;9.146;2022-08-14T12:17:22;32.50;43.80
7512;DHT22;9999;48.780;9.146;2022-08-14T12:19:52;32.60;42.60
7512;DHT22;9999;48.780;9.146;2022-08-14T12:22:31;32.70;42.30
7512;DHT22;9999;48.780;9.146;2022-08-14T12:25:00;32.90;41.90
7512;DHT22;9999;48.780;9.146;2022-08-14T12:27:35;33.30;41.00
7512;DHT22;9999;48.780;9.146;2022-08-14T12:30:02;32.90;40.20
7512;DHT22;9999;48.780;9.146;2022-08-14T12:32:38;33.10;41.50
7512;DHT22;9999;48.780;9.146;2022-08-14T12:35:06;33.10;40.40
7512;DHT22;9999;48.780;9.146;2022-08-14T12:37:35;33.30;41.80
7512;DHT22;9999;48.780;9.146;2022-08-14T12:40:11;33.20;40.00
7512;DHT22;9999;48.780;9.146;2022-08-14T12:42:38;33.30;39.70
7512;DHT22;9999;48.780;9.146;2022-08-14T12:45:06;33.40;41.20
7512;DHT22;9999;48.780;9.146;2022-08-14T12:47:35;33.30;40.00
7512;DHT22;9999;48.780;9.146;2022-08-14T12:50:03;33.50;40.50
7512;DHT22;9999;48.780;9.146;2022-08-14T12:52:31;33.50;39.40
7512;DHT22;9999;48.780;9.146;2022-08-14T12:54:59;33.40;38.60
7512;DHT22;9999;48.780;9.146;2022-08-14T12:57:37;33.10;38.00
7512;DHT22;9999;48.780;9.146;2022-08-14T13:00:12;32.80;37.80
7512;DHT22;9999;48.780;9.146;2022-08-14T13:02:45;33.00;39.30
7512;DHT22;9999;48.780;9.146;2022-08-14T13:05:13;33.30;38.10
7512;DHT22;9999;48.780;9.146;2022-08-14T13:07:41;33.50;37.60
7512;DHT22;9999;48.780;9.146;2022-08-14T13:10:10;33.40;37.60
7512;DHT22;9999;48.780;9.146;2022-08-14T13:12:41;33.20;37.90
7512;DHT22;9999;48.780;9.146;2022-08-14T13:15:09;33.30;37.30
7512;DHT22;9999;48.780;9.146;2022-08-14T13:17:40;33.40;36.70
7512;DHT22;9999;48.780;9.146;2022-08-14T13:20:09;33.30;36.60
7512;DHT22;9999;48.780;9.146;2022-08-14T13:22:38;33.30;37.60
7512;DHT22;9999;48.780;9.146;2022-08-14T13:25:07;33.30;34.80
7512;DHT22;9999;48.780;9.146;2022-08-14T13:27:34;33.30;35.40
7512;DHT22;9999;48.780;9.146;2022-08-14T13:30:05;33.10;36.50
7512;DHT22;9999;48.780;9.146;2022-08-14T13:32:33;33.40;36.70
7512;DHT22;9999;48.780;9.146;2022-08-14T13:35:04;33.30;35.80
7512;DHT22;9999;48.780;9.146;2022-08-14T13:37:31;33.20;36.30
7512;DHT22;9999;48.780;9.146;2022-08-14T13:39:59;33.20;36.90
7512;DHT22;9999;48.780;9.146;2022-08-14T13:42:26;33.20;35.20
7512;DHT22;9999;48.780;9.146;2022-08-14T13:44:54;33.20;37.60
7512;DHT22;9999;48.780;9.146;2022-08-14T13:47:25;33.40;36.40
7512;DHT22;9999;48.780;9.146;2022-08-14T13:49:54;33.60;36.80
7512;DHT22;9999;48.780;9.146;2022-08-14T13:52:22;33.60;36.60
7512;DHT22;9999;48.780;9.146;2022-08-14T13:54:52;33.60;37.50
7512;DHT22;9999;48.780;9.146;2022-08-14T13:57:19;33.60;37.30
7512;DHT22;9999;48.780;9.146;2022-08-14T13:59:48;33.30;36.20
7512;DHT22;9999;48.780;9.146;2022-08-14T14:02:17;33.30;36.90
7512;DHT22;9999;48.780;9.146;2022-08-14T14:04:47;33.20;36.40
7512;DHT22;9999;48.780;9.146;2022-08-14T14:07:18;33.30;35.10
7512;DHT22;9999;48.780;9.146;2022-08-14T14:09:47;33.30;35.60
7512;DHT22;9999;48.780;9.146;2022-08-14T14:12:15;33.40;34.10
7512;DHT22;9999;48.780;9.146;2022-08-14T14:14:42;33.40;34.60
7512;DHT22;9999;48.780;9.146;2022-08-14T14:17:12;33.50;35.30
7512;DHT22;9999;48.780;9.146;2022-08-14T14:19:40;33.30;35.40
7512;DHT22;9999;48.780;9.146;2022-08-14T14:22:09;33.40;35.40
7512;DHT22;9999;48.780;9.146;2022-08-14T14:24:35;33.20;33.60
7512;DHT22;9999;48.780;9.146;2022-08-14T14:27:04;33.00;34.90
7512;DHT22;9999;48.780;9.146;2022-08-14T14:29:35;33.10;34.70
7512;DHT22;9999;48.780;9.146;2022-08-14T14:32:02;33.00;33.60
7512;DHT22;9999;48.780;9.146;2022-08-14T14:34:30;33.20;33.20
7512;DHT22;9999;48.780;9.146;2022-08-14T14:36:58;33.20;32.20
7512;DHT22;9999;48.780;9.146;2022-08-14T14:39:30;33.20;33.90
7512;DHT22;9999;48.780;9.146;2022-08-14T14:41:58;33.10;33.40
7512;DHT22;9999;48.780;9.146;2022-08-14T14:44:26;33.20;34.90
7512;DHT22;9999;48.780;9.146;2022-08-14T14:46:57;33.20;34.60
7512;DHT22;9999;48.780;9.146;2022-08-14T14:49:25;33.00;33.80
7512;DHT22;9999;48.780;9.146;2022-08-14T14:51:54;32.80;34.20
7512;DHT22;9999;48.780;9.146;2022-08-14T14:54:22;32.50;33.90
7512;DHT22;9999;48.780;9.146;2022-08-14T14:56:50;32.40;35.70
7512;DHT22;9999;48.780;9.146;2022-08-14T14:59:18;32.30;34.30
7512;DHT22;9999;48.780;9.146;2022-08-14T15:01:48;32.30;33.70
7512;DHT22;9999;48.780;9.146;2022-08-14T15:04:15;32.00;33.50
7512;DHT22;9999;48.780;9.146;2022-08-14T15:06:42;32.20;33.60
7512;DHT22;9999;48.780;9.146;2022-08-14T15:09:09;32.30;35.30
7512;DHT22;9999;48.780;9.146;2022-08-14T15:11:36;32.30;33.90
7512;DHT22;9999;48.780;9.146;2022-08-14T15:14:04;32.30;34.70
7512;DHT22;9999;48.780;9.146;2022-08-14T15:16:31;32.50;36.10
7512;DHT22;9999;48.780;9.146;2022-08-14T15:18:58;32.50;34.80
7512;DHT22;9999;48.780;9.146;2022-08-14T15:21:25;32.00;33.80
7512;DHT22;9999;48.780;9.146;2022-08-14T15:23:52;31.90;33.70
7512;DHT22;9999;48.780;9.146;2022-08-14T15:26:19;31.70;34.50
7512;DHT22;9999;48.780;9.146;2022-08-14T15:28:46;31.80;35.90
7512;DHT22;9999;48.780;9.146;2022-08-14T15:31:14;31.90;35.80
7512;DHT22;9999;48.780;9.146;2022-08-14T15:33:41;31.70;37.20
7512;DHT22;9999;48.780;9.146;2022-08-14T15:36:25;31.40;34.60
7512;DHT22;9999;48.780;9.146;2022-08-14T15:38:53;31.40;36.60
7512;DHT22;9999;48.780;9.146;2022-08-14T15:41:20;31.50;34.40
7512;DHT22;9999;48.780;9.146;2022-08-14T15:43:47;31.60;34.50
7512;DHT22;9999;48.780;9.146;2022-08-14T15:46:15;31.50;34.60
7512;DHT22;9999;48.780;9.146;2022-08-14T15:48:43;31.50;36.10
7512;DHT22;9999;48.780;9.146;2022-08-14T15:51:10;31.30;37.70
7512;DHT22;9999;48.780;9.146;2022-08-14T15:53:37;31.30;35.00
7512;DHT22;9999;48.780;9.146;2022-08-14T15:56:04;31.40;39.20
7512;DHT22;9999;48.780;9.146;2022-08-14T15:58:31;31.30;39.60
7512;DHT22;9999;48.780;9.146;2022-08-14T16:00:58;31.10;36.90
7512;DHT22;9999;48.780;9.146;2022-08-14T16:03:43;31.10;37.30
7512;DHT22;9999;48.780;9.146;2022-08-14T16:06:13;31.20;36.30
7512;DHT22;9999;48.780;9.146;2022-08-14T16:08:41;31.10;38.40
7512;DHT22;9999;48.780;9.146;2022-08-14T16:11:10;31.00;36.80
7512;DHT22;9999;48.780;9.146;2022-08-14T16:13:37;31.20;37.60
7512;DHT22;9999;48.780;9.146;2022-08-14T16:16:10;31.30;39.30